sensor_id;sensor_type;location;lat;lon;timestamp;temperature;humidity
57058;DHT22;55017;52.848;6.748;2023-05-08T00:01:08;13.30;99.90
57058;DHT22;55017;52.848;6.748;2023-05-08T00:03:34;13.30;99.90
57058;DHT22;55017;52.848;6.748;2023-05-08T00:06:03;13.40;99.90
57058;DHT22;55017;52.848;6.748;2023-05-08T00:08:29;13.30;99.90
57058;DHT22;55017;52.848;6.748;2023-05-08T00:10:54;13.20;99.90
57058;DHT22;55017;52.848;6.748;2023-05-08T00:13:20;13.30;99.90
57058;DHT22;55017;52.848;6.748;2023-05-08T00:15:45;13.40;99.90
57058;DHT22;55017;52.848;6.748;2023-05-08T00:18:11;13.30;99.90
57058;DHT22;55017;52.848;6.748;2023-05-08T00:20:37;13.20;99.90
57058;DHT22;55017;52.848;6.748;2023-05-08T00:23:03;13.10;99.90
57058;DHT22;55017;52.848;6.748;2023-05-08T00:25:28;13.10;99.90
57058;DHT22;55017;52.848;6.748;2023-05-08T00:27:55;13.20;99.90
57058;DHT22;55017;52.848;6.748;2023-05-08T00:30:21;13.00;99.90
57058;DHT22;55017;52.848;6.748;2023-05-08T00:32:47;13.00;99.90
57058;DHT22;55017;52.848;6.748;2023-05-08T00:35:13;13.00;99.90
57058;DHT22;55017;52.848;6.748;2023-05-08T00:37:38;13.00;99.90
57058;DHT22;55017;52.848;6.748;2023-05-08T00:40:09;13.00;99.90
57058;DHT22;55017;52.848;6.748;2023-05-08T00:42:36;13.00;99.90
57058;DHT22;55017;52.848;6.748;2023-05-08T00:45:01;13.00;99.90
57058;DHT22;55017;52.848;6.748;2023-05-08T00:47:28;12.90;99.90
57058;DHT22;55017;52.848;6.748;2023-05-08T00:49:54;12.90;99.90
57058;DHT22;55017;52.848;6.748;2023-05-08T00:52:20;13.00;99.90
57058;DHT22;55017;52.848;6.748;2023-05-08T00:54:46;12.90;99.90
57058;DHT22;55017;52.848;6.748;2023-05-08T00:57:13;12.80;99.90
57058;DHT22;55017;52.848;6.748;2023-05-08T00:59:40;12.80;99.90
57058;DHT22;55017;52.848;6.748;2023-05-08T01:02:06;12.90;99.90
57058;DHT22;55017;52.848;6.748;2023-05-08T01:04:34;12.70;99.90
57058;DHT22;55017;52.848;6.748;2023-05-08T01:07:01;12.80;99.90
57058;DHT22;55017;52.848;6.748;2023-05-08T01:09:26;12.70;99.90
57058;DHT22;55017;52.848;6.748;2023-05-08T01:15:05;12.70;99.90
57058;DHT22;55017;52.848;6.748;2023-05-08T01:17:56;12.70;99.90
57058;DHT22;55017;52.848;6.748;2023-05-08T01:23:07;12.60;99.90
57058;DHT22;55017;52.848;6.748;2023-05-08T01:29:22;12.50;99.90
57058;DHT22;55017;52.848;6.748;2023-05-08T01:34:45;12.50;99.90
57058;DHT22;55017;52.848;6.748;2023-05-08T01:37:16;12.50;99.90
57058;DHT22;55017;52.848;6.748;2023-05-08T01:39:59;12.40;99.90
57058;DHT22;55017;52.848;6.748;2023-05-08T01:45:13;12.40;99.90
57058;DHT22;55017;52.848;6.748;2023-05-08T01:47:41;12.50;99.90
57058;DHT22;55017;52.848;6.748;2023-05-08T01:50:19;12.60;99.90
57058;DHT22;55017;52.848;6.748;2023-05-08T01:52:50;12.40;99.90
57058;DHT22;55017;52.848;6.748;2023-05-08T01:55:23;12.40;99.90
57058;DHT22;55017;52.848;6.748;2023-05-08T01:57:53;12.30;99.90
57058;DHT22;55017;52.848;6.748;2023-05-08T02:00:20;12.30;99.90
57058;DHT22;55017;52.848;6.748;2023-05-08T02:02:47;12.20;99.90
57058;DHT22;55017;52.848;6.748;2023-05-08T02:05:14;12.20;99.90
57058;DHT22;55017;52.848;6.748;2023-05-08T02:07:41;12.10;99.90
57058;DHT22;55017;52.848;6.748;2023-05-08T02:10:09;12.10;99.90
57058;DHT22;55017;52.848;6.748;2023-05-08T02:12:36;12.10;99.90
57058;DHT22;55017;52.848;6.748;2023-05-08T02:15:05;12.10;99.90
57058;DHT22;55017;52.848;6.748;2023-05-08T02:17:32;12.10;99.90
57058;DHT22;55017;52.848;6.748;2023-05-08T02:20:01;11.90;99.90
57058;DHT22;55017;52.848;6.748;2023-05-08T02:22:29;12.00;99.90
57058;DHT22;55017;52.848;6.748;2023-05-08T02:24:56;12.00;99.90
57058;DHT22;55017;52.848;6.748;2023-05-08T02:27:24;12.00;99.90
57058;DHT22;55017;52.848;6.748;2023-05-08T02:29:51;11.90;99.90
57058;DHT22;55017;52.848;6.748;2023-05-08T02:32:19;11.90;99.90
57058;DHT22;55017;52.848;6.748;2023-05-08T02:34:49;11.90;99.90
57058;DHT22;55017;52.848;6.748;2023-05-08T02:37:17;11.80;99.90
57058;DHT22;55017;52.848;6.748;2023-05-08T02:39:44;11.80;99.90
57058;DHT22;55017;52.848;6.748;2023-05-08T02:42:11;11.80;99.90
57058;DHT22;55017;52.848;6.748;2023-05-08T02:44:37;11.80;99.90
57058;DHT22;55017;52.848;6.748;2023-05-08T02:47:17;11.80;99.90
57058;DHT22;55017;52.848;6.748;2023-05-08T02:49:55;11.80;99.90
57058;DHT22;55017;52.848;6.748;2023-05-08T02:52:31;11.80;99.90
57058;DHT22;55017;52.848;6.748;2023-05-08T02:55:09;11.70;99.90
57058;DHT22;55017;52.848;6.748;2023-05-08T02:58:09;11.70;99.90
57058;DHT22;55017;52.848;6.748;2023-05-08T03:00:44;11.70;99.90
57058;DHT22;55017;52.848;6.748;2023-05-08T03:03:24;11.70;99.90
57058;DHT22;55017;52.848;6.748;2023-05-08T03:05:53;11.70;99.90
57058;DHT22;55017;52.848;6.748;2023-05-08T03:08:30;11.60;99.90
57058;DHT22;55017;52.848;6.748;2023-05-08T03:11:00;11.60;99.90
57058;DHT22;55017;52.848;6.748;2023-05-08T03:13:28;11.50;99.90
57058;DHT22;55017;52.848;6.748;2023-05-08T03:15:59;11.60;99.90
57058;DHT22;55017;52.848;6.748;2023-05-08T03:18:32;11.50;99.90
57058;DHT22;55017;52.848;6.748;2023-05-08T03:20:59;11.50;99.90
57058;DHT22;55017;52.848;6.748;2023-05-08T03:23:27;11.40;99.90
57058;DHT22;55017;52.848;6.748;2023-05-08T03:25:54;11.40;99.90
57058;DHT22;55017;52.848;6.748;2023-05-08T03:28:22;11.40;99.90
57058;DHT22;55017;52.848;6.748;2023-05-08T03:30:49;11.50;99.90
57058;DHT22;55017;52.848;6.748;2023-05-08T03:33:16;11.40;99.90
57058;DHT22;55017;52.848;6.748;2023-05-08T03:35:42;11.30;99.90
57058;DHT22;55017;52.848;6.748;2023-05-08T03:38:09;11.30;99.90
57058;DHT22;55017;52.848;6.748;2023-05-08T03:40:36;11.30;99.90
57058;DHT22;55017;52.848;6.748;2023-05-08T03:43:05;11.20;99.90
57058;DHT22;55017;52.848;6.748;2023-05-08T03:45:33;11.30;99.90
57058;DHT22;55017;52.848;6.748;2023-05-08T03:47:59;11.30;99.90
57058;DHT22;55017;52.848;6.748;2023-05-08T03:50:25;11.10;99.90
57058;DHT22;55017;52.848;6.748;2023-05-08T03:52:51;11.00;99.90
57058;DHT22;55017;52.848;6.748;2023-05-08T03:55:17;11.00;99.90
57058;DHT22;55017;52.848;6.748;2023-05-08T04:01:00;11.10;99.90
57058;DHT22;55017;52.848;6.748;2023-05-08T04:06:22;11.00;99.90
57058;DHT22;55017;52.848;6.748;2023-05-08T04:08:53;11.00;99.90
57058;DHT22;55017;52.848;6.748;2023-05-08T04:11:29;10.90;99.90
57058;DHT22;55017;52.848;6.748;2023-05-08T04:14:00;11.00;99.90
57058;DHT22;55017;52.848;6.748;2023-05-08T04:16:28;10.90;99.90
57058;DHT22;55017;52.848;6.748;2023-05-08T04:19:01;11.00;99.90
57058;DHT22;55017;52.848;6.748;2023-05-08T04:21:28;11.00;99.90
57058;DHT22;55017;52.848;6.748;2023-05-08T04:23:57;11.00;99.90
57058;DHT22;55017;52.848;6.748;2023-05-08T04:26:23;11.00;99.90
57058;DHT22;55017;52.848;6.748;2023-05-08T04:28:50;11.00;99.90
57058;DHT22;55017;52.848;6.748;2023-05-08T04:31:15;11.00;99.90
57058;DHT22;55017;52.848;6.748;2023-05-08T04:33:44;10.80;99.90
57058;DHT22;55017;52.848;6.748;2023-05-08T04:36:11;11.00;99.90
57058;DHT22;55017;52.848;6.748;2023-05-08T04:38:38;10.80;99.90
57058;DHT22;55017;52.848;6.748;2023-05-08T04:41:03;10.90;99.90
57058;DHT22;55017;52.848;6.748;2023-05-08T04:43:29;10.80;99.90
57058;DHT22;55017;52.848;6.748;2023-05-08T04:45:55;10.80;99.90
57058;DHT22;55017;52.848;6.748;2023-05-08T04:48:20;10.80;99.90
57058;DHT22;55017;52.848;6.748;2023-05-08T04:50:46;10.80;99.90
57058;DHT22;55017;52.848;6.748;2023-05-08T04:53:11;10.90;99.90
57058;DHT22;55017;52.848;6.748;2023-05-08T04:55:37;10.80;99.90
57058;DHT22;55017;52.848;6.748;2023-05-08T04:58:02;10.90;99.90
57058;DHT22;55017;52.848;6.748;2023-05-08T05:00:28;10.80;99.90
57058;DHT22;55017;52.848;6.748;2023-05-08T05:02:53;10.90;99.90
57058;DHT22;55017;52.848;6.748;2023-05-08T05:05:19;10.90;99.90
57058;DHT22;55017;52.848;6.748;2023-05-08T05:07:45;10.90;99.90
57058;DHT22;55017;52.848;6.748;2023-05-08T05:10:10;10.90;99.90
57058;DHT22;55017;52.848;6.748;2023-05-08T05:12:37;10.90;99.90
57058;DHT22;55017;52.848;6.748;2023-05-08T05:15:03;10.90;99.90
57058;DHT22;55017;52.848;6.748;2023-05-08T05:17:29;11.10;99.90
57058;DHT22;55017;52.848;6.748;2023-05-08T05:19:55;11.10;99.90
57058;DHT22;55017;52.848;6.748;2023-05-08T05:22:22;11.20;99.90
57058;DHT22;55017;52.848;6.748;2023-05-08T05:24:47;11.20;99.90
57058;DHT22;55017;52.848;6.748;2023-05-08T05:27:13;11.20;99.90
57058;DHT22;55017;52.848;6.748;2023-05-08T05:29:38;11.40;99.90
57058;DHT22;55017;52.848;6.748;2023-05-08T05:32:04;11.30;99.90
57058;DHT22;55017;52.848;6.748;2023-05-08T05:34:31;11.40;99.90
57058;DHT22;55017;52.848;6.748;2023-05-08T05:36:57;11.40;99.90
57058;DHT22;55017;52.848;6.748;2023-05-08T05:39:22;11.50;99.90
57058;DHT22;55017;52.848;6.748;2023-05-08T05:41:48;11.60;99.90
57058;DHT22;55017;52.848;6.748;2023-05-08T05:44:13;11.60;99.90
57058;DHT22;55017;52.848;6.748;2023-05-08T05:46:39;11.60;99.90
57058;DHT22;55017;52.848;6.748;2023-05-08T05:49:04;11.80;99.90
57058;DHT22;55017;52.848;6.748;2023-05-08T05:51:30;11.70;99.90
57058;DHT22;55017;52.848;6.748;2023-05-08T05:53:56;11.90;99.90
57058;DHT22;55017;52.848;6.748;2023-05-08T05:56:21;11.80;99.90
57058;DHT22;55017;52.848;6.748;2023-05-08T05:58:47;12.00;99.90
57058;DHT22;55017;52.848;6.748;2023-05-08T06:01:13;12.00;99.90
57058;DHT22;55017;52.848;6.748;2023-05-08T06:03:39;12.00;99.90
57058;DHT22;55017;52.848;6.748;2023-05-08T06:06:04;12.00;99.90
57058;DHT22;55017;52.848;6.748;2023-05-08T06:08:30;12.20;99.90
57058;DHT22;55017;52.848;6.748;2023-05-08T06:10:56;12.20;99.90
57058;DHT22;55017;52.848;6.748;2023-05-08T06:13:21;12.20;99.90
57058;DHT22;55017;52.848;6.748;2023-05-08T06:15:47;12.30;99.90
57058;DHT22;55017;52.848;6.748;2023-05-08T06:18:15;12.30;99.90
57058;DHT22;55017;52.848;6.748;2023-05-08T06:20:41;12.40;99.90
57058;DHT22;55017;52.848;6.748;2023-05-08T06:23:06;12.50;99.90
57058;DHT22;55017;52.848;6.748;2023-05-08T06:25:32;12.50;99.90
57058;DHT22;55017;52.848;6.748;2023-05-08T06:27:58;12.60;99.90
57058;DHT22;55017;52.848;6.748;2023-05-08T06:30:23;12.60;99.90
57058;DHT22;55017;52.848;6.748;2023-05-08T06:32:49;12.70;99.90
57058;DHT22;55017;52.848;6.748;2023-05-08T06:35:14;12.60;99.90
57058;DHT22;55017;52.848;6.748;2023-05-08T06:37:44;12.50;99.90
57058;DHT22;55017;52.848;6.748;2023-05-08T06:40:11;12.40;99.90
57058;DHT22;55017;52.848;6.748;2023-05-08T06:42:37;12.40;99.90
57058;DHT22;55017;52.848;6.748;2023-05-08T06:45:03;12.50;99.90
57058;DHT22;55017;52.848;6.748;2023-05-08T06:47:28;12.60;99.90
57058;DHT22;55017;52.848;6.748;2023-05-08T06:49:54;12.80;99.90
57058;DHT22;55017;52.848;6.748;2023-05-08T06:52:19;12.80;99.90
57058;DHT22;55017;52.848;6.748;2023-05-08T06:54:45;12.90;99.90
57058;DHT22;55017;52.848;6.748;2023-05-08T06:57:11;13.00;99.90
57058;DHT22;55017;52.848;6.748;2023-05-08T06:59:39;13.00;99.90
57058;DHT22;55017;52.848;6.748;2023-05-08T07:02:05;13.00;99.90
57058;DHT22;55017;52.848;6.748;2023-05-08T07:04:30;13.00;99.90
57058;DHT22;55017;52.848;6.748;2023-05-08T07:06:56;13.00;99.90
57058;DHT22;55017;52.848;6.748;2023-05-08T07:09:21;13.20;99.90
57058;DHT22;55017;52.848;6.748;2023-05-08T07:11:47;13.40;99.90
57058;DHT22;55017;52.848;6.748;2023-05-08T07:14:13;13.70;99.90
57058;DHT22;55017;52.848;6.748;2023-05-08T07:16:38;13.80;99.90
57058;DHT22;55017;52.848;6.748;2023-05-08T07:19:04;13.90;99.90
57058;DHT22;55017;52.848;6.748;2023-05-08T07:21:29;14.20;99.90
57058;DHT22;55017;52.848;6.748;2023-05-08T07:23:55;14.40;99.90
57058;DHT22;55017;52.848;6.748;2023-05-08T07:26:21;14.50;99.90
57058;DHT22;55017;52.848;6.748;2023-05-08T07:28:47;14.70;99.90
57058;DHT22;55017;52.848;6.748;2023-05-08T07:31:13;14.80;99.90
57058;DHT22;55017;52.848;6.748;2023-05-08T07:33:38;15.10;99.90
57058;DHT22;55017;52.848;6.748;2023-05-08T07:36:05;15.30;99.90
57058;DHT22;55017;52.848;6.748;2023-05-08T07:38:30;15.50;99.90
57058;DHT22;55017;52.848;6.748;2023-05-08T07:40:56;15.50;99.90
57058;DHT22;55017;52.848;6.748;2023-05-08T07:43:24;15.60;99.90
57058;DHT22;55017;52.848;6.748;2023-05-08T07:45:49;15.70;99.90
57058;DHT22;55017;52.848;6.748;2023-05-08T07:48:15;15.80;99.90
57058;DHT22;55017;52.848;6.748;2023-05-08T07:50:41;16.00;99.90
57058;DHT22;55017;52.848;6.748;2023-05-08T07:53:06;16.20;99.10
57058;DHT22;55017;52.848;6.748;2023-05-08T07:55:32;16.20;97.20
57058;DHT22;55017;52.848;6.748;2023-05-08T07:57:58;16.40;97.50
57058;DHT22;55017;52.848;6.748;2023-05-08T08:00:24;16.50;97.70
57058;DHT22;55017;52.848;6.748;2023-05-08T08:02:51;16.50;96.80
57058;DHT22;55017;52.848;6.748;2023-05-08T08:05:17;16.70;97.00
57058;DHT22;55017;52.848;6.748;2023-05-08T08:07:43;16.70;96.40
57058;DHT22;55017;52.848;6.748;2023-05-08T08:10:09;17.00;95.20
57058;DHT22;55017;52.848;6.748;2023-05-08T08:12:34;17.00;94.70
57058;DHT22;55017;52.848;6.748;2023-05-08T08:15:00;17.00;95.10
57058;DHT22;55017;52.848;6.748;2023-05-08T08:17:26;17.20;94.90
57058;DHT22;55017;52.848;6.748;2023-05-08T08:19:52;17.30;94.30
57058;DHT22;55017;52.848;6.748;2023-05-08T08:22:18;17.40;93.10
57058;DHT22;55017;52.848;6.748;2023-05-08T08:24:43;17.60;92.90
57058;DHT22;55017;52.848;6.748;2023-05-08T08:27:09;17.70;92.20
57058;DHT22;55017;52.848;6.748;2023-05-08T08:29:34;17.70;92.80
57058;DHT22;55017;52.848;6.748;2023-05-08T08:32:00;17.90;91.80
57058;DHT22;55017;52.848;6.748;2023-05-08T08:34:27;18.00;91.00
57058;DHT22;55017;52.848;6.748;2023-05-08T08:36:53;18.00;90.80
57058;DHT22;55017;52.848;6.748;2023-05-08T08:39:19;18.20;91.20
57058;DHT22;55017;52.848;6.748;2023-05-08T08:41:44;18.40;90.80
57058;DHT22;55017;52.848;6.748;2023-05-08T08:44:10;18.50;89.20
57058;DHT22;55017;52.848;6.748;2023-05-08T08:46:38;18.70;87.00
57058;DHT22;55017;52.848;6.748;2023-05-08T08:49:07;18.70;86.30
57058;DHT22;55017;52.848;6.748;2023-05-08T08:51:44;18.70;85.80
57058;DHT22;55017;52.848;6.748;2023-05-08T08:54:12;18.90;85.30
57058;DHT22;55017;52.848;6.748;2023-05-08T08:56:39;19.00;86.20
57058;DHT22;55017;52.848;6.748;2023-05-08T08:59:07;19.20;83.80
57058;DHT22;55017;52.848;6.748;2023-05-08T09:01:34;19.40;85.60
57058;DHT22;55017;52.848;6.748;2023-05-08T09:04:02;19.50;85.40
57058;DHT22;55017;52.848;6.748;2023-05-08T09:06:30;19.70;83.40
57058;DHT22;55017;52.848;6.748;2023-05-08T09:08:56;19.80;83.10
57058;DHT22;55017;52.848;6.748;2023-05-08T09:11:23;19.80;81.20
57058;DHT22;55017;52.848;6.748;2023-05-08T09:13:49;20.10;81.80
57058;DHT22;55017;52.848;6.748;2023-05-08T09:16:15;20.20;81.10
57058;DHT22;55017;52.848;6.748;2023-05-08T09:18:40;20.20;80.50
57058;DHT22;55017;52.848;6.748;2023-05-08T09:21:06;20.40;80.20
57058;DHT22;55017;52.848;6.748;2023-05-08T09:23:34;20.50;79.50
57058;DHT22;55017;52.848;6.748;2023-05-08T09:26:00;20.60;78.00
57058;DHT22;55017;52.848;6.748;2023-05-08T09:28:26;20.50;76.30
57058;DHT22;55017;52.848;6.748;2023-05-08T09:30:57;20.30;75.30
57058;DHT22;55017;52.848;6.748;2023-05-08T09:33:25;20.20;74.60
57058;DHT22;55017;52.848;6.748;2023-05-08T09:35:51;20.20;75.10
57058;DHT22;55017;52.848;6.748;2023-05-08T09:38:37;20.30;76.40
57058;DHT22;55017;52.848;6.748;2023-05-08T09:41:12;20.50;76.30
57058;DHT22;55017;52.848;6.748;2023-05-08T09:43:40;20.70;75.70
57058;DHT22;55017;52.848;6.748;2023-05-08T09:46:19;20.90;74.80
57058;DHT22;55017;52.848;6.748;2023-05-08T09:48:52;20.90;74.70
57058;DHT22;55017;52.848;6.748;2023-05-08T09:51:18;21.30;73.20
57058;DHT22;55017;52.848;6.748;2023-05-08T09:53:44;21.10;73.70
57058;DHT22;55017;52.848;6.748;2023-05-08T09:56:09;21.20;73.00
57058;DHT22;55017;52.848;6.748;2023-05-08T09:58:42;21.30;72.40
57058;DHT22;55017;52.848;6.748;2023-05-08T10:01:27;21.30;72.10
57058;DHT22;55017;52.848;6.748;2023-05-08T10:03:53;21.40;72.00
57058;DHT22;55017;52.848;6.748;2023-05-08T10:06:19;21.40;71.60
57058;DHT22;55017;52.848;6.748;2023-05-08T10:08:45;21.60;71.00
57058;DHT22;55017;52.848;6.748;2023-05-08T10:11:20;21.70;71.40
57058;DHT22;55017;52.848;6.748;2023-05-08T10:13:46;21.80;71.60
57058;DHT22;55017;52.848;6.748;2023-05-08T10:16:16;21.90;71.60
57058;DHT22;55017;52.848;6.748;2023-05-08T10:18:49;22.00;71.10
57058;DHT22;55017;52.848;6.748;2023-05-08T10:21:16;22.00;69.00
57058;DHT22;55017;52.848;6.748;2023-05-08T10:23:42;22.00;70.50
57058;DHT22;55017;52.848;6.748;2023-05-08T10:26:13;22.10;69.70
57058;DHT22;55017;52.848;6.748;2023-05-08T10:28:57;22.20;70.40
57058;DHT22;55017;52.848;6.748;2023-05-08T10:31:35;22.50;69.10
57058;DHT22;55017;52.848;6.748;2023-05-08T10:34:05;22.10;70.10
57058;DHT22;55017;52.848;6.748;2023-05-08T10:36:31;22.10;72.40
57058;DHT22;55017;52.848;6.748;2023-05-08T10:38:58;22.20;70.60
57058;DHT22;55017;52.848;6.748;2023-05-08T10:41:23;22.50;69.70
57058;DHT22;55017;52.848;6.748;2023-05-08T10:43:50;22.50;68.40
57058;DHT22;55017;52.848;6.748;2023-05-08T10:46:28;22.60;69.30
57058;DHT22;55017;52.848;6.748;2023-05-08T10:51:57;22.70;68.20
57058;DHT22;55017;52.848;6.748;2023-05-08T10:54:37;22.60;69.30
57058;DHT22;55017;52.848;6.748;2023-05-08T10:57:10;22.70;67.90
57058;DHT22;55017;52.848;6.748;2023-05-08T10:59:36;22.90;69.00
57058;DHT22;55017;52.848;6.748;2023-05-08T11:02:07;23.00;67.50
57058;DHT22;55017;52.848;6.748;2023-05-08T11:04:32;23.20;66.60
57058;DHT22;55017;52.848;6.748;2023-05-08T11:06:58;23.30;66.60
57058;DHT22;55017;52.848;6.748;2023-05-08T11:09:28;23.40;66.20
57058;DHT22;55017;52.848;6.748;2023-05-08T11:12:07;23.40;67.80
57058;DHT22;55017;52.848;6.748;2023-05-08T11:14:34;23.30;67.00
57058;DHT22;55017;52.848;6.748;2023-05-08T11:19:26;23.30;66.50
57058;DHT22;55017;52.848;6.748;2023-05-08T11:24:37;23.10;66.40
57058;DHT22;55017;52.848;6.748;2023-05-08T11:27:03;23.10;66.60
57058;DHT22;55017;52.848;6.748;2023-05-08T11:29:28;23.20;67.60
57058;DHT22;55017;52.848;6.748;2023-05-08T11:31:54;23.30;68.00
57058;DHT22;55017;52.848;6.748;2023-05-08T11:37:07;23.60;67.00
57058;DHT22;55017;52.848;6.748;2023-05-08T11:39:33;23.50;65.70
57058;DHT22;55017;52.848;6.748;2023-05-08T11:44:43;23.60;66.90
57058;DHT22;55017;52.848;6.748;2023-05-08T11:47:11;23.50;65.60
57058;DHT22;55017;52.848;6.748;2023-05-08T11:49:40;23.50;66.30
57058;DHT22;55017;52.848;6.748;2023-05-08T11:52:06;24.30;62.60
57058;DHT22;55017;52.848;6.748;2023-05-08T11:54:32;23.90;64.30
57058;DHT22;55017;52.848;6.748;2023-05-08T11:56:57;23.70;64.80
57058;DHT22;55017;52.848;6.748;2023-05-08T11:59:23;23.70;66.40
57058;DHT22;55017;52.848;6.748;2023-05-08T12:01:49;23.70;65.90
57058;DHT22;55017;52.848;6.748;2023-05-08T12:04:15;23.80;67.00
57058;DHT22;55017;52.848;6.748;2023-05-08T12:06:41;23.90;66.00
57058;DHT22;55017;52.848;6.748;2023-05-08T12:09:14;24.20;65.60
57058;DHT22;55017;52.848;6.748;2023-05-08T12:11:41;23.90;65.10
57058;DHT22;55017;52.848;6.748;2023-05-08T12:14:09;23.80;64.90
57058;DHT22;55017;52.848;6.748;2023-05-08T12:16:38;24.00;66.30
57058;DHT22;55017;52.848;6.748;2023-05-08T12:19:09;24.00;65.40
57058;DHT22;55017;52.848;6.748;2023-05-08T12:21:35;24.00;64.90
57058;DHT22;55017;52.848;6.748;2023-05-08T12:24:04;24.00;65.60
57058;DHT22;55017;52.848;6.748;2023-05-08T12:26:34;24.00;65.90
57058;DHT22;55017;52.848;6.748;2023-05-08T12:29:03;23.80;64.70
57058;DHT22;55017;52.848;6.748;2023-05-08T12:31:29;23.70;64.90
57058;DHT22;55017;52.848;6.748;2023-05-08T12:33:55;23.90;65.50
57058;DHT22;55017;52.848;6.748;2023-05-08T12:36:21;23.60;65.80
57058;DHT22;55017;52.848;6.748;2023-05-08T12:38:46;23.70;67.10
57058;DHT22;55017;52.848;6.748;2023-05-08T12:41:12;24.00;66.60
57058;DHT22;55017;52.848;6.748;2023-05-08T12:43:37;24.10;65.40
57058;DHT22;55017;52.848;6.748;2023-05-08T12:46:03;24.30;65.40
57058;DHT22;55017;52.848;6.748;2023-05-08T12:48:29;24.50;65.90
57058;DHT22;55017;52.848;6.748;2023-05-08T12:51:00;24.30;65.20
57058;DHT22;55017;52.848;6.748;2023-05-08T12:53:28;24.50;65.90
57058;DHT22;55017;52.848;6.748;2023-05-08T12:55:56;24.60;67.70
57058;DHT22;55017;52.848;6.748;2023-05-08T12:58:27;24.80;66.90
57058;DHT22;55017;52.848;6.748;2023-05-08T13:00:53;25.00;65.60
57058;DHT22;55017;52.848;6.748;2023-05-08T13:03:28;25.00;63.80
57058;DHT22;55017;52.848;6.748;2023-05-08T13:05:57;25.20;64.10
57058;DHT22;55017;52.848;6.748;2023-05-08T13:08:33;25.10;62.40
57058;DHT22;55017;52.848;6.748;2023-05-08T13:10:59;25.20;63.40
57058;DHT22;55017;52.848;6.748;2023-05-08T13:13:25;25.20;61.40
57058;DHT22;55017;52.848;6.748;2023-05-08T13:15:53;25.30;61.00
57058;DHT22;55017;52.848;6.748;2023-05-08T13:18:19;25.30;60.60
57058;DHT22;55017;52.848;6.748;2023-05-08T13:20:45;25.40;60.70
57058;DHT22;55017;52.848;6.748;2023-05-08T13:23:11;25.50;61.70
57058;DHT22;55017;52.848;6.748;2023-05-08T13:25:38;25.50;61.80
57058;DHT22;55017;52.848;6.748;2023-05-08T13:28:04;25.40;61.00
57058;DHT22;55017;52.848;6.748;2023-05-08T13:30:30;25.30;60.80
57058;DHT22;55017;52.848;6.748;2023-05-08T13:32:56;25.00;60.80
57058;DHT22;55017;52.848;6.748;2023-05-08T13:35:22;24.90;60.30
57058;DHT22;55017;52.848;6.748;2023-05-08T13:37:49;24.70;61.10
57058;DHT22;55017;52.848;6.748;2023-05-08T13:40:16;24.80;61.60
57058;DHT22;55017;52.848;6.748;2023-05-08T13:42:41;25.00;62.00
57058;DHT22;55017;52.848;6.748;2023-05-08T13:45:08;25.10;61.20
57058;DHT22;55017;52.848;6.748;2023-05-08T13:47:40;25.40;61.20
57058;DHT22;55017;52.848;6.748;2023-05-08T13:50:07;25.70;59.80
57058;DHT22;55017;52.848;6.748;2023-05-08T13:52:33;25.60;58.40
57058;DHT22;55017;52.848;6.748;2023-05-08T13:54:58;25.60;59.00
57058;DHT22;55017;52.848;6.748;2023-05-08T13:57:25;25.70;58.40
57058;DHT22;55017;52.848;6.748;2023-05-08T13:59:51;25.90;58.80
57058;DHT22;55017;52.848;6.748;2023-05-08T14:02:16;25.70;59.30
57058;DHT22;55017;52.848;6.748;2023-05-08T14:04:42;25.70;60.80
57058;DHT22;55017;52.848;6.748;2023-05-08T14:07:07;25.60;60.60
57058;DHT22;55017;52.848;6.748;2023-05-08T14:09:33;25.70;60.10
57058;DHT22;55017;52.848;6.748;2023-05-08T14:11:59;25.80;60.00
57058;DHT22;55017;52.848;6.748;2023-05-08T14:14:24;25.80;61.00
57058;DHT22;55017;52.848;6.748;2023-05-08T14:16:50;25.70;60.50
57058;DHT22;55017;52.848;6.748;2023-05-08T14:19:16;25.60;61.20
57058;DHT22;55017;52.848;6.748;2023-05-08T14:21:43;25.50;61.10
57058;DHT22;55017;52.848;6.748;2023-05-08T14:24:09;25.40;61.50
57058;DHT22;55017;52.848;6.748;2023-05-08T14:26:34;25.20;62.20
57058;DHT22;55017;52.848;6.748;2023-05-08T14:29:00;25.00;62.50
57058;DHT22;55017;52.848;6.748;2023-05-08T14:31:25;24.40;63.20
57058;DHT22;55017;52.848;6.748;2023-05-08T14:33:51;24.00;64.10
57058;DHT22;55017;52.848;6.748;2023-05-08T14:36:17;24.00;65.70
57058;DHT22;55017;52.848;6.748;2023-05-08T14:38:42;23.20;65.60
57058;DHT22;55017;52.848;6.748;2023-05-08T14:41:08;22.70;66.80
57058;DHT22;55017;52.848;6.748;2023-05-08T14:43:33;22.10;68.50
57058;DHT22;55017;52.848;6.748;2023-05-08T14:45:59;21.50;70.30
57058;DHT22;55017;52.848;6.748;2023-05-08T14:48:25;21.00;74.90
57058;DHT22;55017;52.848;6.748;2023-05-08T14:50:52;20.50;79.10
57058;DHT22;55017;52.848;6.748;2023-05-08T14:53:17;20.20;82.50
57058;DHT22;55017;52.848;6.748;2023-05-08T14:55:43;20.00;87.00
57058;DHT22;55017;52.848;6.748;2023-05-08T14:58:08;19.80;88.90
57058;DHT22;55017;52.848;6.748;2023-05-08T15:00:34;19.60;91.50
57058;DHT22;55017;52.848;6.748;2023-05-08T15:02:59;19.50;93.20
57058;DHT22;55017;52.848;6.748;2023-05-08T15:05:25;19.50;95.40
57058;DHT22;55017;52.848;6.748;2023-05-08T15:07:51;19.40;95.80
57058;DHT22;55017;52.848;6.748;2023-05-08T15:10:16;19.30;96.50
57058;DHT22;55017;52.848;6.748;2023-05-08T15:12:42;19.30;97.30
57058;DHT22;55017;52.848;6.748;2023-05-08T15:15:07;19.40;99.20
57058;DHT22;55017;52.848;6.748;2023-05-08T15:17:33;19.30;99.90
57058;DHT22;55017;52.848;6.748;2023-05-08T15:20:01;19.40;99.90
57058;DHT22;55017;52.848;6.748;2023-05-08T15:22:27;19.40;99.90
57058;DHT22;55017;52.848;6.748;2023-05-08T15:24:53;19.30;99.90
57058;DHT22;55017;52.848;6.748;2023-05-08T15:27:19;19.30;99.90
57058;DHT22;55017;52.848;6.748;2023-05-08T15:29:44;19.20;99.90
57058;DHT22;55017;52.848;6.748;2023-05-08T15:32:10;19.30;99.90
57058;DHT22;55017;52.848;6.748;2023-05-08T15:34:35;19.20;99.90
57058;DHT22;55017;52.848;6.748;2023-05-08T15:37:01;19.10;99.90
57058;DHT22;55017;52.848;6.748;2023-05-08T15:39:26;19.30;99.90
57058;DHT22;55017;52.848;6.748;2023-05-08T15:41:52;19.00;99.90
57058;DHT22;55017;52.848;6.748;2023-05-08T15:44:18;19.10;99.90
57058;DHT22;55017;52.848;6.748;2023-05-08T15:46:43;19.10;99.90
57058;DHT22;55017;52.848;6.748;2023-05-08T15:49:09;19.10;99.90
57058;DHT22;55017;52.848;6.748;2023-05-08T15:51:34;19.10;99.90
57058;DHT22;55017;52.848;6.748;2023-05-08T15:54:00;19.20;99.90
57058;DHT22;55017;52.848;6.748;2023-05-08T15:56:26;19.30;99.90
57058;DHT22;55017;52.848;6.748;2023-05-08T15:58:52;19.20;99.90
57058;DHT22;55017;52.848;6.748;2023-05-08T16:01:18;19.20;99.90
57058;DHT22;55017;52.848;6.748;2023-05-08T16:03:44;19.30;99.90
57058;DHT22;55017;52.848;6.748;2023-05-08T16:06:10;19.30;99.90